createdAt,value
2022-12-31T00:00:47.942Z,0.63
2022-12-31T00:03:42.225Z,1.00
2022-12-31T00:06:36.886Z,1.05
2022-12-31T00:09:30.379Z,1.63
2022-12-31T00:12:25.364Z,2.53
2022-12-31T00:15:18.442Z,1.48
2022-12-31T00:18:12.110Z,1.27
2022-12-31T00:21:07.159Z,1.73
2022-12-31T00:24:00.287Z,1.48
2022-12-31T00:26:53.530Z,1.23
2022-12-31T00:29:47.644Z,0.70
2022-12-31T00:32:40.722Z,1.52
2022-12-31T00:35:34.823Z,2.28
2022-12-31T00:38:28.176Z,0.77
2022-12-31T00:41:22.711Z,1.10
2022-12-31T00:44:16.527Z,0.82
2022-12-31T00:47:10.573Z,2.15
2022-12-31T00:50:03.534Z,3.58
2022-12-31T00:52:56.143Z,2.13
2022-12-31T00:55:49.733Z,0.93
2022-12-31T00:58:43.669Z,0.63
2022-12-31T01:01:39.483Z,1.38
2022-12-31T01:04:33.314Z,1.20
2022-12-31T01:07:26.421Z,1.02
2022-12-31T01:10:40.898Z,0.70
2022-12-31T01:13:34.482Z,0.73
2022-12-31T01:16:30.339Z,1.23
2022-12-31T01:19:25.243Z,1.67
2022-12-31T01:22:19.853Z,1.80
2022-12-31T01:25:13.427Z,1.13
2022-12-31T01:28:07.293Z,0.65
2022-12-31T01:31:00.727Z,0.85
2022-12-31T01:33:54.720Z,1.33
2022-12-31T01:36:47.701Z,1.38
2022-12-31T01:39:41.831Z,0.65
2022-12-31T01:42:35.648Z,1.25
2022-12-31T01:45:28.508Z,0.50
2022-12-31T01:48:25.692Z,1.42
2022-12-31T01:51:18.920Z,1.13
2022-12-31T01:54:16.127Z,1.35
2022-12-31T01:57:11.991Z,1.52
2022-12-31T02:00:07.630Z,1.70
2022-12-31T02:03:00.673Z,1.85
2022-12-31T02:05:58.940Z,1.05
2022-12-31T02:08:52.581Z,1.48
2022-12-31T02:11:45.663Z,0.90
2022-12-31T02:14:43.306Z,2.47
2022-12-31T02:17:44.453Z,0.68
2022-12-31T02:20:55.374Z,0.60
2022-12-31T02:24:18.904Z,0.50
2022-12-31T02:27:16.521Z,1.27
2022-12-31T02:30:14.230Z,1.48
2022-12-31T02:33:17.834Z,0.77
2022-12-31T02:36:16.282Z,0.85
2022-12-31T02:39:11.590Z,1.13
2022-12-31T02:42:05.107Z,0.70
2022-12-31T02:44:58.098Z,1.33
2022-12-31T02:48:07.210Z,0.77
2022-12-31T02:51:13.159Z,0.75
2022-12-31T02:54:30.113Z,0.85
2022-12-31T02:57:30.560Z,2.15
2022-12-31T03:00:40.779Z,1.88
2022-12-31T03:03:36.984Z,1.25
2022-12-31T03:06:30.559Z,0.68
2022-12-31T03:09:23.612Z,2.15
2022-12-31T03:12:35.412Z,2.10
2022-12-31T03:15:30.924Z,2.20
2022-12-31T03:18:55.579Z,1.23
2022-12-31T03:22:07.501Z,1.30
2022-12-31T03:25:20.202Z,0.70
2022-12-31T03:28:15.495Z,1.63
2022-12-31T03:31:08.431Z,1.00
2022-12-31T03:34:01.810Z,1.00
2022-12-31T03:36:56.593Z,1.92
2022-12-31T03:39:49.707Z,3.17
2022-12-31T03:42:42.873Z,1.33
2022-12-31T03:45:36.550Z,1.05
2022-12-31T03:48:29.722Z,1.42
2022-12-31T03:51:22.313Z,3.67
2022-12-31T03:54:16.723Z,1.75
2022-12-31T03:57:09.746Z,1.17
2022-12-31T04:00:02.830Z,2.97
2022-12-31T04:02:56.595Z,1.63
2022-12-31T04:05:54.385Z,0.95
2022-12-31T04:08:47.672Z,2.03
2022-12-31T04:11:41.868Z,1.17
2022-12-31T04:14:35.645Z,1.85
2022-12-31T04:17:29.147Z,1.77
2022-12-31T04:20:22.599Z,1.95
2022-12-31T04:23:15.710Z,0.90
2022-12-31T04:26:08.480Z,1.40
2022-12-31T04:29:02.697Z,2.55
2022-12-31T04:31:55.632Z,1.77
2022-12-31T04:34:48.517Z,1.05
2022-12-31T04:37:41.794Z,1.58
2022-12-31T04:40:34.983Z,4.03
2022-12-31T04:43:28.923Z,3.17
2022-12-31T04:46:26.611Z,2.70
2022-12-31T04:49:19.762Z,1.67
2022-12-31T04:52:12.404Z,2.17
2022-12-31T04:55:06.510Z,1.83
2022-12-31T04:57:59.579Z,1.92
2022-12-31T05:00:54.571Z,1.50
2022-12-31T05:03:49.234Z,1.88
2022-12-31T05:06:42.720Z,2.50
2022-12-31T05:09:35.883Z,2.55
2022-12-31T05:12:28.624Z,4.20
2022-12-31T05:15:21.622Z,2.10
2022-12-31T05:18:15.162Z,1.70
2022-12-31T05:21:11.895Z,2.95
2022-12-31T05:24:04.883Z,1.75
2022-12-31T05:26:58.912Z,2.15
2022-12-31T05:29:52.635Z,1.73
2022-12-31T05:32:45.787Z,1.80
2022-12-31T05:35:38.718Z,1.27
2022-12-31T05:38:32.875Z,1.88
2022-12-31T05:41:25.383Z,1.27
2022-12-31T05:44:20.712Z,1.80
2022-12-31T05:47:13.355Z,3.35
2022-12-31T05:50:07.611Z,1.70
2022-12-31T05:53:01.034Z,2.70
2022-12-31T05:55:56.358Z,1.35
2022-12-31T05:58:49.652Z,2.38
2022-12-31T06:01:42.663Z,1.48
2022-12-31T06:04:35.597Z,3.60
2022-12-31T06:07:28.793Z,2.38
2022-12-31T06:10:21.645Z,1.92
2022-12-31T06:13:15.959Z,1.23
2022-12-31T06:16:11.206Z,1.75
2022-12-31T06:19:04.620Z,3.53
2022-12-31T06:21:57.988Z,1.23
2022-12-31T06:24:51.549Z,1.33
2022-12-31T06:27:44.812Z,1.20
2022-12-31T06:30:38.987Z,2.55
2022-12-31T06:33:32.802Z,1.30
2022-12-31T06:36:27.132Z,3.70
2022-12-31T06:39:20.685Z,1.42
2022-12-31T06:42:14.332Z,1.17
2022-12-31T06:45:08.960Z,1.83
2022-12-31T06:48:03.269Z,1.45
2022-12-31T06:50:56.791Z,1.55
2022-12-31T06:53:51.628Z,2.03
2022-12-31T06:56:45.408Z,2.28
2022-12-31T06:59:39.332Z,2.63
2022-12-31T07:03:00.442Z,2.33
2022-12-31T07:06:03.273Z,1.13
2022-12-31T07:09:05.389Z,0.98
2022-12-31T07:12:09.014Z,1.80
2022-12-31T07:15:06.505Z,4.35
2022-12-31T07:18:07.909Z,1.70
2022-12-31T07:21:02.805Z,1.73
2022-12-31T07:23:55.921Z,2.13
2022-12-31T07:27:11.979Z,2.15
2022-12-31T07:30:08.402Z,2.55
2022-12-31T07:33:14.221Z,1.40
2022-12-31T07:36:22.544Z,1.50
2022-12-31T07:39:22.006Z,2.63
2022-12-31T07:42:21.047Z,1.77
2022-12-31T07:45:21.420Z,1.83
2022-12-31T07:48:23.964Z,2.38
2022-12-31T07:51:19.126Z,1.23
2022-12-31T07:54:14.356Z,1.40
2022-12-31T07:57:07.749Z,1.35
2022-12-31T08:00:07.759Z,1.75
2022-12-31T08:03:11.469Z,2.25
2022-12-31T08:06:13.370Z,0.55
2022-12-31T08:09:17.948Z,1.65
2022-12-31T08:12:10.978Z,1.70
2022-12-31T08:15:12.711Z,1.02
2022-12-31T08:18:07.011Z,1.80
2022-12-31T08:21:09.328Z,2.95
2022-12-31T08:24:16.412Z,1.95
2022-12-31T08:27:20.879Z,1.48
2022-12-31T08:30:16.529Z,1.77
2022-12-31T08:33:15.117Z,4.13
2022-12-31T08:36:19.166Z,1.95
2022-12-31T08:39:25.220Z,3.90
2022-12-31T08:42:26.583Z,2.83
2022-12-31T08:45:27.037Z,2.10
2022-12-31T08:48:27.505Z,2.30
2022-12-31T08:51:23.002Z,3.67
2022-12-31T08:54:17.722Z,2.35
2022-12-31T08:57:21.969Z,1.25
2022-12-31T09:00:17.359Z,2.65
2022-12-31T09:03:40.049Z,1.70
2022-12-31T09:06:37.106Z,3.72
2022-12-31T09:09:43.405Z,1.88
2022-12-31T09:12:43.805Z,3.67
2022-12-31T09:15:43.206Z,2.88
2022-12-31T09:18:41.364Z,2.72
2022-12-31T09:21:35.104Z,7.82
2022-12-31T09:24:29.644Z,5.93
2022-12-31T09:27:31.157Z,4.72
2022-12-31T09:30:26.737Z,7.38
2022-12-31T09:33:35.477Z,10.32
2022-12-31T09:36:33.057Z,7.47
2022-12-31T09:39:38.153Z,7.57
2022-12-31T09:42:58.855Z,11.50
2022-12-31T09:46:25.939Z,13.55
2022-12-31T09:49:49.609Z,12.60
2022-12-31T09:53:02.421Z,6.57
2022-12-31T09:56:02.088Z,10.70
2022-12-31T09:59:03.982Z,22.88
2022-12-31T10:02:03.381Z,20.63
2022-12-31T10:05:13.848Z,18.30
2022-12-31T10:08:21.171Z,14.07
2022-12-31T10:11:20.563Z,17.48
2022-12-31T10:14:28.949Z,13.27
2022-12-31T10:17:38.764Z,12.05
2022-12-31T10:20:56.164Z,21.90
2022-12-31T10:24:28.588Z,19.75
2022-12-31T10:27:39.415Z,21.60
2022-12-31T10:30:36.532Z,18.00
2022-12-31T10:33:42.521Z,20.20
2022-12-31T10:36:55.975Z,15.82
2022-12-31T10:40:00.700Z,16.85
2022-12-31T10:43:27.311Z,14.13
2022-12-31T10:47:02.997Z,13.07
2022-12-31T10:50:42.282Z,9.07
2022-12-31T10:54:10.427Z,8.55
2022-12-31T10:57:43.450Z,12.40
2022-12-31T11:00:46.529Z,10.18
2022-12-31T11:04:09.252Z,11.27
2022-12-31T11:07:33.543Z,12.98
2022-12-31T11:11:00.778Z,11.48
2022-12-31T11:14:17.017Z,9.57
2022-12-31T11:17:35.365Z,7.30
2022-12-31T11:20:57.436Z,9.27
2022-12-31T11:23:58.193Z,8.38
2022-12-31T11:27:07.382Z,7.60
2022-12-31T11:30:10.872Z,24.45
2022-12-31T11:33:19.220Z,11.32
2022-12-31T11:36:25.437Z,25.95
2022-12-31T11:39:35.265Z,21.05
2022-12-31T11:42:45.070Z,20.67
2022-12-31T11:46:09.425Z,19.38
2022-12-31T11:49:16.308Z,15.95
2022-12-31T11:52:44.362Z,15.77
2022-12-31T11:55:54.079Z,12.77
2022-12-31T11:58:49.469Z,10.05
2022-12-31T12:01:53.812Z,8.70
2022-12-31T12:04:50.821Z,9.15
2022-12-31T12:07:45.576Z,14.45
2022-12-31T12:10:42.976Z,17.85
2022-12-31T12:13:36.057Z,19.25
2022-12-31T12:16:29.560Z,9.75
2022-12-31T12:19:27.757Z,11.43
2022-12-31T12:22:23.887Z,17.88
2022-12-31T12:25:21.482Z,15.93
2022-12-31T12:28:23.754Z,15.23
2022-12-31T12:31:21.703Z,11.60
2022-12-31T12:34:25.006Z,13.73
2022-12-31T12:37:29.649Z,10.95
2022-12-31T12:40:31.492Z,15.15
2022-12-31T12:43:28.915Z,8.00
2022-12-31T12:46:33.056Z,10.75
2022-12-31T12:49:28.292Z,10.20
2022-12-31T12:52:59.119Z,7.60
2022-12-31T12:56:06.546Z,8.75
2022-12-31T12:59:30.339Z,8.63
2022-12-31T13:02:51.694Z,7.18
2022-12-31T13:06:07.565Z,11.63
2022-12-31T13:09:19.121Z,6.53
2022-12-31T13:12:23.015Z,8.15
2022-12-31T13:15:22.348Z,8.23
2022-12-31T13:18:38.561Z,10.90
2022-12-31T13:21:42.541Z,6.78
2022-12-31T13:24:50.377Z,5.25
2022-12-31T13:27:47.672Z,6.60
2022-12-31T13:30:43.393Z,8.35
2022-12-31T13:33:40.959Z,10.25
2022-12-31T13:36:38.769Z,6.57
2022-12-31T13:39:37.520Z,6.10
2022-12-31T13:42:40.235Z,6.07
2022-12-31T13:45:40.091Z,6.18
2022-12-31T13:48:38.209Z,7.13
2022-12-31T13:51:41.763Z,5.25
2022-12-31T13:54:42.266Z,5.88
2022-12-31T13:57:43.138Z,11.38
2022-12-31T14:00:42.354Z,7.65
2022-12-31T14:03:45.257Z,3.13
2022-12-31T14:06:45.632Z,6.72
2022-12-31T14:09:39.050Z,12.20
2022-12-31T14:12:39.632Z,8.40
2022-12-31T14:15:38.119Z,7.25
2022-12-31T14:18:42.468Z,6.05
2022-12-31T14:21:44.258Z,6.15
2022-12-31T14:24:45.209Z,28.13
2022-12-31T14:27:41.528Z,8.13
2022-12-31T14:30:40.736Z,8.30
2022-12-31T14:33:50.707Z,5.07
2022-12-31T14:36:54.700Z,5.75
2022-12-31T14:39:56.099Z,7.15
2022-12-31T14:42:56.888Z,20.30
2022-12-31T14:46:02.032Z,13.38
2022-12-31T14:49:07.502Z,16.55
2022-12-31T14:52:09.951Z,16.98
2022-12-31T14:55:20.711Z,7.63
2022-12-31T14:58:28.918Z,11.38
2022-12-31T15:01:25.935Z,9.77
2022-12-31T15:04:32.715Z,9.05
2022-12-31T15:07:35.425Z,8.48
2022-12-31T15:10:40.985Z,7.68
2022-12-31T15:13:48.246Z,9.98
2022-12-31T15:16:49.846Z,12.57
2022-12-31T15:20:17.663Z,9.65
2022-12-31T15:23:20.680Z,10.88
2022-12-31T15:26:23.069Z,5.35
2022-12-31T15:29:26.425Z,7.45
2022-12-31T15:32:23.919Z,6.50
2022-12-31T15:35:30.326Z,9.20
2022-12-31T15:38:35.826Z,8.15
2022-12-31T15:41:37.398Z,5.93
2022-12-31T15:44:36.547Z,7.65
2022-12-31T15:47:31.957Z,8.05
2022-12-31T15:50:27.342Z,6.80
2022-12-31T15:53:29.479Z,5.95
2022-12-31T15:56:32.151Z,6.85
2022-12-31T15:59:26.078Z,7.07
2022-12-31T16:02:22.969Z,5.25
2022-12-31T16:05:24.629Z,8.52
2022-12-31T16:08:22.503Z,5.30
2022-12-31T16:11:16.725Z,4.80
2022-12-31T16:14:20.557Z,6.68
2022-12-31T16:17:27.641Z,6.03
2022-12-31T16:20:24.206Z,3.83
2022-12-31T16:23:22.626Z,6.05
2022-12-31T16:26:15.895Z,3.92
2022-12-31T16:29:15.375Z,5.38
2022-12-31T16:32:13.147Z,3.67
2022-12-31T16:35:23.779Z,4.95
2022-12-31T16:38:20.200Z,5.50
2022-12-31T16:41:19.133Z,5.72
2022-12-31T16:44:26.329Z,3.05
2022-12-31T16:47:22.460Z,5.80
2022-12-31T16:50:18.903Z,2.75
2022-12-31T16:53:17.403Z,4.80
2022-12-31T16:56:12.012Z,5.28
2022-12-31T16:59:15.011Z,3.35
2022-12-31T17:02:17.040Z,4.63
2022-12-31T17:05:20.485Z,5.10
2022-12-31T17:08:24.781Z,2.92
2022-12-31T17:11:23.910Z,2.78
2022-12-31T17:14:19.264Z,3.55
2022-12-31T17:17:22.022Z,3.20
2022-12-31T17:20:23.386Z,5.65
2022-12-31T17:23:24.487Z,4.05
2022-12-31T17:26:25.835Z,6.38
2022-12-31T17:29:26.314Z,4.35
2022-12-31T17:32:32.017Z,4.07
2022-12-31T17:35:30.879Z,3.63
2022-12-31T17:38:33.803Z,3.38
2022-12-31T17:41:29.137Z,2.58
2022-12-31T17:44:23.996Z,6.05
2022-12-31T17:47:17.267Z,4.32
2022-12-31T17:50:20.817Z,3.00
2022-12-31T17:53:14.242Z,2.88
2022-12-31T17:56:16.667Z,4.63
2022-12-31T17:59:16.805Z,5.63
2022-12-31T18:02:14.056Z,2.97
2022-12-31T18:05:15.441Z,3.83
2022-12-31T18:08:08.250Z,2.80
2022-12-31T18:11:01.433Z,2.47
2022-12-31T18:13:54.921Z,5.95
2022-12-31T18:16:49.471Z,3.38
2022-12-31T18:22:55.867Z,2.90
2022-12-31T18:25:49.085Z,2.95
2022-12-31T18:28:42.805Z,3.78
2022-12-31T18:31:36.122Z,2.80
2022-12-31T18:34:30.629Z,2.45
2022-12-31T18:37:24.177Z,2.95
2022-12-31T18:40:17.496Z,4.97
2022-12-31T18:43:15.482Z,4.07
2022-12-31T18:46:11.940Z,1.83
2022-12-31T18:49:05.411Z,1.77
2022-12-31T18:51:59.793Z,2.30
2022-12-31T18:54:52.908Z,3.20
2022-12-31T18:57:46.242Z,3.40
2022-12-31T19:00:39.782Z,2.70
2022-12-31T19:03:33.153Z,4.15
2022-12-31T19:06:26.821Z,2.42
2022-12-31T19:12:35.480Z,2.13
2022-12-31T19:15:32.834Z,2.28
2022-12-31T19:18:26.332Z,2.88
2022-12-31T19:21:22.377Z,2.05
2022-12-31T19:24:18.543Z,4.53
2022-12-31T19:27:12.851Z,2.35
2022-12-31T19:30:07.692Z,2.97
2022-12-31T19:33:01.837Z,1.83
2022-12-31T19:35:55.296Z,3.60
2022-12-31T19:38:48.601Z,7.63
2022-12-31T19:41:43.578Z,5.32
2022-12-31T19:44:37.889Z,7.55
2022-12-31T19:47:31.383Z,5.47
2022-12-31T19:50:26.929Z,5.57
2022-12-31T19:53:23.110Z,8.10
2022-12-31T19:56:18.800Z,4.72
2022-12-31T19:59:12.443Z,3.78
2022-12-31T20:02:06.908Z,6.40
2022-12-31T20:05:00.105Z,3.75
2022-12-31T20:07:53.413Z,4.22
2022-12-31T20:10:46.533Z,3.60
2022-12-31T20:13:40.293Z,3.80
2022-12-31T20:16:33.985Z,7.95
2022-12-31T20:19:29.056Z,3.70
2022-12-31T20:22:22.170Z,3.97
2022-12-31T20:25:14.918Z,4.35
2022-12-31T20:28:08.252Z,4.10
2022-12-31T20:31:06.294Z,5.32
2022-12-31T20:33:59.122Z,3.70
2022-12-31T20:36:53.393Z,4.78
2022-12-31T20:39:46.535Z,5.75
2022-12-31T20:42:40.930Z,3.40
2022-12-31T20:45:34.236Z,4.93
2022-12-31T20:48:27.296Z,4.88
2022-12-31T20:51:23.716Z,3.50
2022-12-31T20:54:18.447Z,3.47
2022-12-31T20:57:11.677Z,4.65
2022-12-31T21:00:07.110Z,6.97
2022-12-31T21:03:08.494Z,4.80
2022-12-31T21:06:13.277Z,3.17
2022-12-31T21:09:08.320Z,4.28
2022-12-31T21:12:20.706Z,3.17
2022-12-31T21:15:14.683Z,4.10
2022-12-31T21:18:08.370Z,3.20
2022-12-31T21:21:01.359Z,5.30
2022-12-31T21:23:54.419Z,4.18
2022-12-31T21:26:47.496Z,3.20
2022-12-31T21:30:10.092Z,3.42
2022-12-31T21:32:54.147Z,3.40
2022-12-31T21:35:53.960Z,3.97
2022-12-31T21:38:47.370Z,3.28
2022-12-31T21:41:52.541Z,4.68
2022-12-31T21:44:46.728Z,2.85
2022-12-31T21:47:57.603Z,4.25
2022-12-31T21:50:51.838Z,2.72
2022-12-31T21:53:45.464Z,3.10
2022-12-31T21:56:38.522Z,5.15
2022-12-31T21:59:58.283Z,3.83
2022-12-31T22:03:21.112Z,4.97
2022-12-31T22:06:16.825Z,3.10
2022-12-31T22:09:10.298Z,3.97
2022-12-31T22:12:03.724Z,2.58
2022-12-31T22:15:14.946Z,3.08
2022-12-31T22:18:10.722Z,3.85
2022-12-31T22:21:09.610Z,2.85
2022-12-31T22:24:05.355Z,3.33
2022-12-31T22:26:59.673Z,3.50
2022-12-31T22:30:12.846Z,3.92
2022-12-31T22:33:06.428Z,4.57
2022-12-31T22:36:05.594Z,3.85
2022-12-31T22:38:58.968Z,3.75
2022-12-31T22:41:52.635Z,4.28
2022-12-31T22:44:45.498Z,3.72
2022-12-31T22:47:38.445Z,2.75
2022-12-31T22:50:31.526Z,4.00
2022-12-31T22:53:25.862Z,2.88
2022-12-31T22:56:20.550Z,5.25
2022-12-31T22:59:13.115Z,4.70
2022-12-31T23:02:06.401Z,4.70
2022-12-31T23:05:16.163Z,4.60
2022-12-31T23:08:18.773Z,4.70
2022-12-31T23:11:16.174Z,5.93
2022-12-31T23:14:34.155Z,5.55
2022-12-31T23:17:45.985Z,5.55
2022-12-31T23:20:57.122Z,5.20
2022-12-31T23:23:54.361Z,4.88
2022-12-31T23:26:49.176Z,13.02
2022-12-31T23:29:46.998Z,15.25
2022-12-31T23:32:40.236Z,16.10
2022-12-31T23:35:33.486Z,23.42
2022-12-31T23:38:26.142Z,16.92
2022-12-31T23:41:21.107Z,15.63
2022-12-31T23:44:15.921Z,14.00
2022-12-31T23:47:09.632Z,18.63
2022-12-31T23:50:02.609Z,14.43
2022-12-31T23:52:55.859Z,15.02
2022-12-31T23:55:49.954Z,14.35
2022-12-31T23:58:43.749Z,16.15
